Terminal Aerodrome Forecast
Issued by NWS Blacksburg, VA

Current Version | Previous Version | Graphics & Text | Print | Product List | Glossary On
Versions: 1 2 3 4 5 6 7 8 9 10 11 12 13 14 15 16 17 18 19 20 21 22 23 24 25 26 27 28 29 30 31 32 33 34 35 36 37
646
FTUS41 KRNK 191720
TAFBLF
TAF
KBLF 191720Z 1918/2018 29015G24KT 6SM -SHSN OVC020
      TEMPO 1918/1922 2SM -SHSN BKN008
     FM200000 29014G23KT P6SM SCT025 BKN035
     FM200500 29012KT P6SM FEW025 SCT035
     FM201000 28008KT P6SM FEW025 SCT035
     FM201100 28007KT P6SM SCT250=

USA.gov is the U.S. government's official web portal to all federal, state and local government web resources and services.